Time;durP1;ratioP1;P1;durP2;ratioP2;P2;SDS_P1;SDS_P2;PMS_P1;PMS_P2;Temp;Humidity;BMP_temperature;BMP_pressure;BME280_temperature;BME280_humidity;BME280_pressure;Samples;Min_cycle;Max_cycle;Signal;HPM_P1;HPM_P2
2021/03/29 00:00:42;;;;;;;3.40;1.03;;;11.50;79.10;;;;;;5075969;28;20462;-62
2021/03/29 00:03:08;;;;;;;1.47;0.20;;;11.50;79.40;;;;;;5078299;28;20177;-62
2021/03/29 00:05:34;;;;;;;1.47;0.20;;;11.40;79.10;;;;;;5080436;28;20457;-62
2021/03/29 00:08:07;;;;;;;1.47;0.20;;;11.40;79.20;;;;;;5082702;28;20211;-62
2021/03/29 00:10:35;;;;;;;1.43;0.20;;;11.40;79.60;;;;;;5094440;28;20499;-62
2021/03/29 00:13:01;;;;;;;1.50;0.20;;;11.40;79.80;;;;;;5076964;28;20434;-62
2021/03/29 00:15:30;;;;;;;1.50;0.20;;;11.40;80.00;;;;;;5062030;28;20470;-62
2021/03/29 00:17:56;;;;;;;1.50;0.20;;;11.30;80.10;;;;;;5059233;28;20996;-61
2021/03/29 00:20:30;;;;;;;1.50;0.20;;;11.30;79.80;;;;;;5077800;28;20458;-61
2021/03/29 00:22:57;;;;;;;1.50;0.20;;;11.30;80.20;;;;;;5079745;28;20540;-63
2021/03/29 00:25:26;;;;;;;1.50;0.20;;;11.30;80.40;;;;;;5075730;28;20937;-62
2021/03/29 00:27:52;;;;;;;1.50;0.20;;;11.20;80.40;;;;;;5078732;28;20430;-62
2021/03/29 00:30:25;;;;;;;1.50;0.20;;;11.20;80.90;;;;;;5078531;28;20454;-62
2021/03/29 00:32:51;;;;;;;1.50;0.20;;;11.20;80.80;;;;;;5078061;28;20458;-62
2021/03/29 00:35:19;;;;;;;1.50;0.20;;;11.20;80.70;;;;;;5066056;28;20439;-62
2021/03/29 00:37:49;;;;;;;1.50;0.20;;;11.20;80.90;;;;;;5078621;28;20430;-62
2021/03/29 00:40:15;;;;;;;1.50;0.20;;;11.20;80.80;;;;;;5082494;28;20477;-61
2021/03/29 00:42:42;;;;;;;1.70;0.60;;;11.20;81.00;;;;;;5074924;28;20510;-62
2021/03/29 00:45:13;;;;;;;1.50;0.20;;;11.20;81.10;;;;;;5078603;28;20533;-62
2021/03/29 00:47:39;;;;;;;1.50;0.20;;;11.10;81.20;;;;;;5079026;28;20437;-62
2021/03/29 00:50:17;;;;;;;2.80;0.40;;;11.10;81.40;;;;;;5076129;28;20534;-62
2021/03/29 00:52:44;;;;;;;3.50;0.60;;;11.10;81.70;;;;;;5079125;28;20438;-62
2021/03/29 00:55:10;;;;;;;1.50;0.20;;;11.00;81.90;;;;;;5079941;28;20495;-61
2021/03/29 00:57:38;;;;;;;1.50;0.20;;;11.10;82.10;;;;;;5083029;28;20441;-62
2021/03/29 01:00:24;;;;;;;1.50;0.20;;;11.10;82.30;;;;;;5081228;28;20467;-62
2021/03/29 01:02:50;;;;;;;1.50;0.20;;;11.00;82.20;;;;;;5080450;28;20834;-61
2021/03/29 01:05:18;;;;;;;1.50;0.30;;;11.00;82.40;;;;;;5079575;28;20441;-62
2021/03/29 01:07:48;;;;;;;5.30;2.07;;;11.00;82.80;;;;;;5081272;28;20207;-62
2021/03/29 01:10:14;;;;;;;1.50;0.23;;;11.00;82.70;;;;;;5079562;28;20462;-61
2021/03/29 01:12:46;;;;;;;1.50;0.20;;;10.90;82.70;;;;;;5073161;28;20992;-62
2021/03/29 01:15:15;;;;;;;1.50;0.20;;;11.00;82.80;;;;;;5073386;28;20476;-61
2021/03/29 01:17:43;;;;;;;2.00;0.80;;;10.90;83.20;;;;;;5073902;28;20430;-62
2021/03/29 01:20:09;;;;;;;1.50;0.20;;;10.90;82.90;;;;;;5074307;28;20487;-62
2021/03/29 01:22:40;;;;;;;1.50;0.20;;;10.90;83.00;;;;;;5076553;28;20518;-61
2021/03/29 01:25:19;;;;;;;3.50;0.97;;;10.90;83.00;;;;;;5074105;28;20188;-62
2021/03/29 01:28:06;;;;;;;1.50;0.20;;;10.90;83.30;;;;;;5071862;28;20439;-62
2021/03/29 01:30:37;;;;;;;1.50;0.20;;;10.90;83.60;;;;;;5074737;28;21004;-62
2021/03/29 01:33:04;;;;;;;3.30;1.47;;;10.90;83.50;;;;;;5075361;28;20789;-62
2021/03/29 01:35:46;;;;;;;1.50;0.20;;;10.90;83.60;;;;;;5071974;28;20432;-62
2021/03/29 01:38:13;;;;;;;2.23;1.20;;;10.90;83.70;;;;;;5069733;28;20526;-62
2021/03/29 01:40:40;;;;;;;1.50;0.20;;;10.80;83.70;;;;;;5073342;28;20453;-62
2021/03/29 01:43:07;;;;;;;1.60;0.40;;;10.80;83.90;;;;;;5069698;28;20841;-62
2021/03/29 01:45:33;;;;;;;1.63;0.53;;;10.80;84.10;;;;;;5075275;28;20435;-62
2021/03/29 01:48:01;;;;;;;1.50;0.20;;;10.80;84.20;;;;;;5072435;28;20443;-61
2021/03/29 01:50:29;;;;;;;1.50;0.20;;;10.80;84.70;;;;;;5056060;28;21012;-59
2021/03/29 01:52:56;;;;;;;1.50;0.20;;;10.80;84.50;;;;;;5086227;28;20430;-67
2021/03/29 01:55:23;;;;;;;1.50;0.20;;;10.80;84.80;;;;;;5092100;28;20802;-61
2021/03/29 01:57:49;;;;;;;1.87;0.60;;;10.70;84.50;;;;;;5076466;28;20447;-60
2021/03/29 02:00:29;;;;;;;1.50;0.20;;;10.80;84.60;;;;;;5075151;28;21038;-61
2021/03/29 02:02:55;;;;;;;1.97;0.87;;;10.80;84.80;;;;;;5072506;28;20470;-60
2021/03/29 02:05:22;;;;;;;1.60;0.60;;;10.80;84.40;;;;;;5071730;28;20450;-61
2021/03/29 02:07:49;;;;;;;1.50;0.20;;;10.80;84.40;;;;;;5074423;28;20448;-60
2021/03/29 02:10:22;;;;;;;1.50;0.20;;;10.80;84.40;;;;;;5073825;28;20470;-61
2021/03/29 02:12:49;;;;;;;2.83;0.50;;;10.80;84.30;;;;;;5076887;28;20523;-61
2021/03/29 02:15:23;;;;;;;2.00;0.83;;;10.80;84.40;;;;;;5084395;28;20434;-61
2021/03/29 02:17:51;;;;;;;1.50;0.20;;;10.80;84.30;;;;;;5083874;28;20464;-60
2021/03/29 02:20:23;;;;;;;1.50;0.20;;;10.80;84.50;;;;;;5085578;28;20487;-62
2021/03/29 02:22:50;;;;;;;1.50;0.20;;;10.80;84.70;;;;;;5084090;28;20922;-62
2021/03/29 02:25:18;;;;;;;2.17;0.67;;;10.80;84.40;;;;;;5088533;28;20450;-62
2021/03/29 02:27:47;;;;;;;1.50;0.20;;;10.80;84.60;;;;;;5086533;28;20427;-61
2021/03/29 02:30:23;;;;;;;1.60;0.33;;;10.80;84.90;;;;;;5078020;28;20451;-61
2021/03/29 02:32:50;;;;;;;5.50;1.43;;;10.80;85.10;;;;;;5083590;28;20790;-61
2021/03/29 02:35:16;;;;;;;1.50;0.20;;;10.70;85.20;;;;;;5081734;28;20526;-62
2021/03/29 02:37:51;;;;;;;1.50;0.20;;;10.70;85.40;;;;;;5081716;28;20419;-62
2021/03/29 02:40:20;;;;;;;1.50;0.20;;;10.70;85.50;;;;;;5076295;28;20462;-61
2021/03/29 02:42:47;;;;;;;1.50;0.20;;;10.70;85.60;;;;;;5075310;28;20443;-61
2021/03/29 02:45:14;;;;;;;1.50;0.20;;;10.70;85.70;;;;;;5073099;28;20426;-61
2021/03/29 02:47:42;;;;;;;2.60;1.20;;;10.70;86.00;;;;;;5078783;28;21028;-61
2021/03/29 02:50:25;;;;;;;1.50;0.20;;;10.70;86.10;;;;;;5084344;28;20466;-61
2021/03/29 02:52:54;;;;;;;1.50;0.20;;;10.70;86.30;;;;;;5080980;28;20423;-62
2021/03/29 02:55:20;;;;;;;1.50;0.20;;;10.70;86.30;;;;;;5090656;28;20446;-62
2021/03/29 02:57:48;;;;;;;2.93;2.67;;;10.70;85.90;;;;;;5063546;28;20450;-61
2021/03/29 03:00:17;;;;;;;1.80;0.50;;;10.80;86.10;;;;;;5072419;28;20544;-61
2021/03/29 03:02:43;;;;;;;1.50;0.20;;;10.80;85.80;;;;;;5070765;28;20442;-61
2021/03/29 03:05:10;;;;;;;1.60;0.50;;;10.90;85.70;;;;;;5073531;28;20438;-61
2021/03/29 03:07:36;;;;;;;1.60;0.40;;;10.90;85.50;;;;;;5072267;28;20489;-61
2021/03/29 03:10:10;;;;;;;1.60;0.40;;;11.00;84.90;;;;;;5071548;28;20481;-61
2021/03/29 03:12:39;;;;;;;1.57;0.30;;;11.00;84.80;;;;;;5072390;28;20493;-61
2021/03/29 03:15:08;;;;;;;1.77;0.40;;;11.10;84.50;;;;;;5071938;28;20443;-60
2021/03/29 03:17:35;;;;;;;2.27;1.23;;;11.10;84.20;;;;;;5070578;28;20450;-61
2021/03/29 03:20:01;;;;;;;1.50;0.20;;;11.20;84.00;;;;;;5072548;28;20790;-65
2021/03/29 03:22:26;;;;;;;1.50;0.20;;;11.20;83.80;;;;;;5067003;28;20505;-62
2021/03/29 03:24:52;;;;;;;1.73;0.63;;;11.20;84.60;;;;;;5071528;28;20189;-61
2021/03/29 03:27:18;;;;;;;1.50;0.20;;;11.30;83.50;;;;;;5073288;28;20188;-61
2021/03/29 03:29:43;;;;;;;1.50;0.20;;;11.30;83.50;;;;;;5070890;28;20547;-61
2021/03/29 03:32:16;;;;;;;1.50;0.27;;;11.30;83.50;;;;;;5071255;28;20196;-61
2021/03/29 03:34:42;;;;;;;3.30;1.00;;;11.30;83.50;;;;;;5070026;28;20216;-61
2021/03/29 03:37:13;;;;;;;1.50;0.20;;;11.30;83.20;;;;;;5066453;28;20443;-60
2021/03/29 03:39:40;;;;;;;1.50;0.20;;;11.40;83.30;;;;;;5065809;28;20478;-60
2021/03/29 03:42:08;;;;;;;2.73;1.07;;;11.40;83.30;;;;;;5072020;28;20805;-61
2021/03/29 03:44:35;;;;;;;1.50;0.20;;;11.40;83.30;;;;;;5070347;28;20438;-61
2021/03/29 03:47:03;;;;;;;1.50;0.20;;;11.40;83.40;;;;;;5069457;28;20438;-60
2021/03/29 03:49:29;;;;;;;1.50;0.20;;;11.40;83.50;;;;;;5071223;28;20451;-61
2021/03/29 03:51:54;;;;;;;1.50;0.20;;;11.30;83.20;;;;;;5070950;28;20482;-62
2021/03/29 03:54:21;;;;;;;6.50;0.67;;;11.30;83.80;;;;;;5071442;28;20531;-60
2021/03/29 03:56:48;;;;;;;1.50;0.20;;;11.30;83.70;;;;;;5066981;28;20185;-61
2021/03/29 03:59:13;;;;;;;1.50;0.20;;;11.30;83.90;;;;;;5067534;28;20787;-62
2021/03/29 04:02:01;;;;;;;1.60;0.50;;;11.30;84.10;;;;;;5072471;28;20457;-61
2021/03/29 04:04:27;;;;;;;7.40;0.70;;;11.30;84.20;;;;;;5072403;28;20604;-61
2021/03/29 04:06:52;;;;;;;1.50;0.20;;;11.20;84.40;;;;;;5066513;28;20518;-61
2021/03/29 04:09:21;;;;;;;1.50;0.20;;;11.20;84.60;;;;;;5070251;28;20168;-61
2021/03/29 04:11:51;;;;;;;1.50;0.20;;;11.20;85.00;;;;;;5071113;28;20209;-62
2021/03/29 04:14:16;;;;;;;1.50;0.20;;;11.20;85.30;;;;;;5070960;28;20454;-61
2021/03/29 04:16:42;;;;;;;1.60;0.40;;;11.20;85.40;;;;;;5073835;28;20431;-61
2021/03/29 04:19:08;;;;;;;1.50;0.20;;;11.20;85.60;;;;;;5069879;28;20471;-61
2021/03/29 04:21:34;;;;;;;2.17;1.07;;;11.20;85.80;;;;;;5067791;28;20691;-60
2021/03/29 04:23:59;;;;;;;1.50;0.20;;;11.20;85.80;;;;;;5071573;28;20474;-60
2021/03/29 04:26:25;;;;;;;1.50;0.20;;;11.20;86.10;;;;;;5069176;28;20203;-60
2021/03/29 04:28:51;;;;;;;1.50;0.20;;;11.10;86.10;;;;;;5069611;28;20184;-60
2021/03/29 04:31:16;;;;;;;1.50;0.20;;;11.10;86.20;;;;;;5071778;28;20211;-60
2021/03/29 04:33:42;;;;;;;1.50;0.20;;;11.00;86.40;;;;;;5069385;28;20184;-60
2021/03/29 04:36:07;;;;;;;1.50;0.20;;;11.00;86.90;;;;;;5066976;28;20192;-61
2021/03/29 04:38:33;;;;;;;1.50;0.20;;;10.90;86.90;;;;;;5069673;28;20223;-61
2021/03/29 04:40:58;;;;;;;1.50;0.20;;;10.90;87.10;;;;;;5065315;28;20204;-61
2021/03/29 04:43:24;;;;;;;2.30;0.50;;;10.90;87.30;;;;;;5068776;28;20193;-61
2021/03/29 04:45:49;;;;;;;1.60;0.30;;;10.80;87.40;;;;;;5071172;28;20189;-61
2021/03/29 04:48:15;;;;;;;1.50;0.20;;;10.80;87.80;;;;;;5071553;28;20192;-61
2021/03/29 04:50:41;;;;;;;1.50;0.20;;;10.80;88.00;;;;;;5074614;28;20206;-61
2021/03/29 04:53:06;;;;;;;1.50;0.30;;;10.70;88.20;;;;;;5080880;28;20259;-61
2021/03/29 04:55:32;;;;;;;1.50;0.20;;;10.80;88.30;;;;;;5082862;28;20192;-62
2021/03/29 04:57:57;;;;;;;1.50;0.20;;;10.70;88.20;;;;;;5089550;28;20187;-61
2021/03/29 05:00:23;;;;;;;2.60;1.53;;;10.70;88.30;;;;;;5070816;28;20212;-61
2021/03/29 05:02:48;;;;;;;1.50;0.30;;;10.70;88.40;;;;;;5057120;28;20262;-64
2021/03/29 05:05:14;;;;;;;1.50;0.20;;;10.70;88.50;;;;;;5076414;28;20196;-61
2021/03/29 05:07:40;;;;;;;1.57;0.27;;;10.70;88.60;;;;;;5073022;28;20196;-61
2021/03/29 05:10:10;;;;;;;1.50;0.20;;;10.70;89.40;;;;;;5075781;28;20473;-61
2021/03/29 05:12:36;;;;;;;1.50;0.20;;;10.70;88.80;;;;;;5077270;28;20268;-60
2021/03/29 05:15:02;;;;;;;1.57;0.27;;;10.60;89.70;;;;;;5076513;28;20462;-61
2021/03/29 05:17:28;;;;;;;1.50;0.20;;;10.60;89.50;;;;;;5073486;28;20448;-61
2021/03/29 05:19:53;;;;;;;1.50;0.20;;;10.60;89.70;;;;;;5072246;28;20485;-61
2021/03/29 05:22:19;;;;;;;1.50;0.40;;;10.50;90.00;;;;;;5071428;28;20185;-60
2021/03/29 05:24:44;;;;;;;1.50;0.20;;;10.50;89.90;;;;;;5073965;28;20185;-60
2021/03/29 05:27:10;;;;;;;2.00;0.60;;;10.60;90.10;;;;;;5074230;28;20688;-61
2021/03/29 05:29:43;;;;;;;1.50;0.20;;;10.60;90.20;;;;;;5049613;28;20193;-62
2021/03/29 05:32:15;;;;;;;1.60;0.30;;;10.60;90.10;;;;;;5074123;28;20192;-61
2021/03/29 05:34:42;;;;;;;1.50;0.20;;;10.60;90.00;;;;;;5072776;28;20427;-61
2021/03/29 05:37:08;;;;;;;19.10;2.27;;;10.60;90.00;;;;;;5070937;28;20443;-61
2021/03/29 05:39:34;;;;;;;1.60;0.40;;;10.60;90.10;;;;;;5075831;28;20543;-61
2021/03/29 05:42:00;;;;;;;1.60;0.40;;;10.70;90.00;;;;;;5071880;28;20185;-61
2021/03/29 05:44:26;;;;;;;1.50;0.20;;;10.70;89.90;;;;;;5071777;28;20191;-62
2021/03/29 05:46:52;;;;;;;4.47;1.23;;;10.70;89.90;;;;;;5074675;28;20447;-65
2021/03/29 05:49:17;;;;;;;6.43;1.00;;;10.70;90.10;;;;;;5071887;28;20453;-62
2021/03/29 05:51:43;;;;;;;1.50;0.20;;;10.70;90.00;;;;;;5078222;28;20203;-62
2021/03/29 05:54:09;;;;;;;1.50;0.20;;;10.70;90.10;;;;;;5076983;28;20188;-62
2021/03/29 05:56:37;;;;;;;1.80;0.50;;;10.80;90.00;;;;;;5072813;28;20189;-62
2021/03/29 05:59:16;;;;;;;1.50;0.20;;;10.80;90.00;;;;;;5073217;28;20470;-62
2021/03/29 06:01:53;;;;;;;1.50;0.20;;;10.80;89.80;;;;;;5074831;28;20467;-62
2021/03/29 06:04:47;;;;;;;1.50;0.20;;;10.80;89.80;;;;;;5072615;28;20521;-62
2021/03/29 06:07:18;;;;;;;1.50;0.40;;;10.90;90.00;;;;;;5073661;28;20427;-61
2021/03/29 06:09:45;;;;;;;1.80;0.63;;;10.90;89.70;;;;;;5057251;28;20449;-61
2021/03/29 06:12:12;;;;;;;2.00;0.73;;;10.90;89.50;;;;;;5072423;28;20446;-61
2021/03/29 06:14:38;;;;;;;1.50;0.20;;;10.90;89.20;;;;;;5076576;28;20427;-61
2021/03/29 06:17:12;;;;;;;2.10;0.70;;;10.90;89.10;;;;;;5076689;28;20443;-61
2021/03/29 06:19:58;;;;;;;1.60;0.40;;;10.90;89.10;;;;;;5074233;28;20461;-61
2021/03/29 06:22:35;;;;;;;1.93;0.90;;;10.90;89.30;;;;;;5072449;28;20504;-61
2021/03/29 06:25:06;;;;;;;1.50;0.20;;;10.90;89.60;;;;;;5073582;28;20426;-61
2021/03/29 06:27:44;;;;;;;35.47;1.60;;;10.90;89.50;;;;;;5073781;28;20933;-61
2021/03/29 06:30:20;;;;;;;1.50;0.20;;;10.90;89.60;;;;;;5070236;28;20469;-61
2021/03/29 06:33:05;;;;;;;1.50;0.20;;;10.90;89.30;;;;;;5076510;28;20439;-62
2021/03/29 06:35:33;;;;;;;5.20;3.30;;;10.90;89.40;;;;;;5073290;28;20446;-62
2021/03/29 06:38:11;;;;;;;7.83;1.47;;;10.90;89.20;;;;;;5068330;28;20526;-61
2021/03/29 06:40:40;;;;;;;1.50;0.20;;;10.90;88.90;;;;;;5072956;28;20837;-61
2021/03/29 06:43:17;;;;;;;1.53;0.20;;;10.90;88.60;;;;;;5070130;28;20423;-61
2021/03/29 06:45:43;;;;;;;1.50;0.20;;;11.00;88.80;;;;;;5073262;28;20937;-61
2021/03/29 06:48:29;;;;;;;2.07;0.57;;;11.00;88.90;;;;;;5072405;28;21028;-62
2021/03/29 06:51:12;;;;;;;1.50;0.20;;;11.00;88.60;;;;;;5050427;28;20471;-62
2021/03/29 06:53:43;;;;;;;1.50;0.20;;;11.00;88.10;;;;;;5075523;28;20573;-62
2021/03/29 06:56:35;;;;;;;1.60;0.30;;;11.00;88.00;;;;;;5072052;28;20442;-62
2021/03/29 06:59:08;;;;;;;1.50;0.20;;;11.10;87.70;;;;;;5072078;28;20470;-61
2021/03/29 07:01:44;;;;;;;1.50;0.20;;;11.10;87.50;;;;;;5075146;28;20566;-61
2021/03/29 07:04:10;;;;;;;1.50;0.20;;;11.10;87.40;;;;;;5071234;28;20434;-61
2021/03/29 07:06:37;;;;;;;1.50;0.20;;;11.20;87.20;;;;;;5072941;28;20434;-62
2021/03/29 07:09:07;;;;;;;1.90;0.40;;;11.20;86.70;;;;;;5071753;28;20256;-62
2021/03/29 07:11:37;;;;;;;13.73;0.63;;;11.30;86.80;;;;;;5047565;28;20468;-62
2021/03/29 07:14:04;;;;;;;2.30;0.37;;;11.30;86.00;;;;;;5077594;28;20448;-62
2021/03/29 07:16:30;;;;;;;1.50;0.20;;;11.30;85.80;;;;;;5074534;28;20442;-62
2021/03/29 07:18:58;;;;;;;1.60;0.30;;;11.40;86.10;;;;;;5052663;28;20984;-62
2021/03/29 07:21:23;;;;;;;1.50;0.23;;;11.40;85.90;;;;;;5073286;28;20980;-62
2021/03/29 07:23:51;;;;;;;2.83;1.33;;;11.40;85.30;;;;;;5073223;28;20434;-62
2021/03/29 07:26:32;;;;;;;1.60;0.70;;;11.50;85.00;;;;;;5070141;28;20423;-62
2021/03/29 07:29:14;;;;;;;1.50;0.20;;;11.50;84.50;;;;;;5074652;28;20434;-61
2021/03/29 07:31:42;;;;;;;1.50;0.20;;;11.60;84.60;;;;;;5075029;28;21023;-62
2021/03/29 07:34:08;;;;;;;2.57;0.80;;;11.60;85.70;;;;;;5073389;28;20797;-63
2021/03/29 07:36:42;;;;;;;1.50;0.20;;;11.70;84.50;;;;;;5079001;28;20453;-62
2021/03/29 07:39:09;;;;;;;1.50;0.20;;;11.70;83.90;;;;;;5070521;28;20446;-62
2021/03/29 07:41:35;;;;;;;1.50;0.20;;;11.80;84.00;;;;;;5063697;28;20450;-62
2021/03/29 07:44:15;;;;;;;5.77;1.30;;;11.80;83.80;;;;;;5075441;28;20808;-62
2021/03/29 07:46:43;;;;;;;4.60;1.23;;;11.90;83.50;;;;;;5067676;28;20173;-63
2021/03/29 07:49:41;;;;;;;2.30;0.67;;;11.90;83.40;;;;;;5070491;28;20431;-62
2021/03/29 07:52:33;;;;;;;4.80;1.17;;;11.90;82.90;;;;;;5064052;28;20439;-62
2021/03/29 07:55:01;;;;;;;4.03;2.03;;;11.90;83.30;;;;;;5070527;28;20454;-63
2021/03/29 07:57:45;;;;;;;6.27;2.20;;;11.90;83.80;;;;;;5070812;28;20597;-64
2021/03/29 08:00:25;;;;;;;23.87;21.53;;;11.90;83.10;;;;;;5069731;28;20466;-64
2021/03/29 08:02:57;;;;;;;2.67;1.10;;;12.00;83.50;;;;;;5071175;28;20438;-63
2021/03/29 08:05:39;;;;;;;2.07;0.40;;;12.00;83.20;;;;;;5084912;28;20426;-63
2021/03/29 08:08:44;;;;;;;1.50;0.20;;;12.00;84.20;;;;;;5087477;28;20430;-64
2021/03/29 08:11:13;;;;;;;2.00;0.40;;;12.00;83.70;;;;;;5086286;28;20470;-68
2021/03/29 08:13:47;;;;;;;1.60;0.60;;;12.00;84.20;;;;;;5089994;28;20438;-62
2021/03/29 08:19:15;;;;;;;2.90;0.90;;;12.20;83.30;;;;;;5081962;28;20461;-54
2021/03/29 08:21:51;;;;;;;4.90;1.03;;;12.30;82.60;;;;;;5081200;28;20468;-55
2021/03/29 08:24:16;;;;;;;6.70;2.23;;;12.30;81.90;;;;;;5094978;28;20430;-56
2021/03/29 08:26:42;;;;;;;1.40;0.20;;;12.30;81.90;;;;;;5089380;28;20795;-56
2021/03/29 08:29:10;;;;;;;1.47;0.20;;;12.40;81.80;;;;;;5092291;28;20211;-56
2021/03/29 08:31:58;;;;;;;2.77;0.83;;;12.40;82.00;;;;;;5089809;28;20171;-56
2021/03/29 08:34:23;;;;;;;2.63;1.33;;;12.50;81.70;;;;;;5095616;28;20472;-57
2021/03/29 08:36:49;;;;;;;3.10;1.53;;;12.50;81.30;;;;;;5089721;28;20489;-56
2021/03/29 08:39:17;;;;;;;3.60;1.43;;;12.60;81.40;;;;;;5097667;28;20214;-56
2021/03/29 08:41:43;;;;;;;1.60;0.37;;;12.60;81.10;;;;;;5087726;28;20448;-55
2021/03/29 08:44:11;;;;;;;5.13;1.50;;;12.70;81.10;;;;;;5095971;28;20907;-57
2021/03/29 08:46:37;;;;;;;3.20;1.47;;;12.80;80.90;;;;;;5096377;28;20218;-55
2021/03/29 08:49:09;;;;;;;2.80;1.57;;;12.80;81.10;;;;;;5088921;28;20847;-56
2021/03/29 08:51:35;;;;;;;1.47;0.20;;;12.90;81.20;;;;;;5092563;28;20449;-57
2021/03/29 08:54:11;;;;;;;7.00;1.40;;;13.00;81.00;;;;;;5097539;28;20444;-56
2021/03/29 08:56:42;;;;;;;2.20;1.03;;;13.00;81.00;;;;;;5086764;28;20472;-56
2021/03/29 08:59:09;;;;;;;1.50;0.27;;;13.10;79.90;;;;;;5088099;28;20511;-56
2021/03/29 09:01:35;;;;;;;1.50;0.27;;;13.20;79.80;;;;;;5094576;28;20448;-55
2021/03/29 09:04:02;;;;;;;4.70;2.53;;;13.20;79.40;;;;;;5084127;28;20443;-55
2021/03/29 09:06:29;;;;;;;1.50;0.20;;;13.30;78.60;;;;;;5094321;28;20437;-55
2021/03/29 09:08:55;;;;;;;4.57;0.97;;;13.30;78.60;;;;;;5099160;28;20439;-55
2021/03/29 09:11:21;;;;;;;1.50;0.20;;;13.30;78.90;;;;;;5086869;28;20454;-55
2021/03/29 09:13:47;;;;;;;1.43;0.20;;;13.30;79.10;;;;;;5099174;28;20449;-53
2021/03/29 09:16:13;;;;;;;1.50;0.20;;;13.40;79.20;;;;;;5088669;28;20658;-54
2021/03/29 09:18:38;;;;;;;1.97;0.30;;;13.40;78.00;;;;;;5089911;28;20547;-54
2021/03/29 09:21:04;;;;;;;1.50;0.20;;;13.50;77.30;;;;;;5089195;28;20187;-55
2021/03/29 09:23:32;;;;;;;1.43;0.20;;;13.60;77.10;;;;;;5095515;28;20242;-53
2021/03/29 09:26:00;;;;;;;1.50;0.20;;;13.60;77.00;;;;;;5087508;28;20272;-54
2021/03/29 09:28:39;;;;;;;2.10;0.73;;;13.60;77.10;;;;;;5090133;28;21026;-54
2021/03/29 09:31:11;;;;;;;1.90;0.60;;;13.70;76.60;;;;;;5092370;28;20425;-55
2021/03/29 09:33:41;;;;;;;2.73;1.80;;;13.80;76.30;;;;;;5087773;28;20490;-54
2021/03/29 09:36:12;;;;;;;2.77;0.93;;;13.90;76.20;;;;;;5091253;28;20430;-55
2021/03/29 09:38:43;;;;;;;6.57;1.80;;;14.00;75.60;;;;;;5089261;28;20496;-55
2021/03/29 09:41:30;;;;;;;2.47;0.43;;;14.20;74.80;;;;;;5095976;28;20552;-55
2021/03/29 09:43:57;;;;;;;1.60;0.53;;;14.20;75.10;;;;;;5093566;28;20448;-54
2021/03/29 09:46:31;;;;;;;2.53;0.37;;;14.20;75.30;;;;;;5090919;28;20442;-55
2021/03/29 09:49:13;;;;;;;4.10;1.40;;;14.30;75.10;;;;;;5089024;28;20450;-55
2021/03/29 09:51:41;;;;;;;4.80;1.40;;;14.40;75.30;;;;;;5094629;28;20758;-55
2021/03/29 09:54:44;;;;;;;1.60;0.50;;;14.30;75.20;;;;;;5086115;28;20444;-54
2021/03/29 09:57:15;;;;;;;1.60;0.43;;;14.40;75.30;;;;;;5046928;28;20479;-54
2021/03/29 09:59:43;;;;;;;1.60;0.50;;;14.50;75.10;;;;;;5090334;28;20928;-53
2021/03/29 10:02:16;;;;;;;1.50;0.20;;;14.50;75.10;;;;;;5101068;28;20829;-55
2021/03/29 10:04:43;;;;;;;2.30;0.43;;;14.60;75.30;;;;;;5092997;28;20452;-54
2021/03/29 10:07:17;;;;;;;2.00;0.60;;;14.70;74.50;;;;;;5092917;28;20450;-53
2021/03/29 10:09:47;;;;;;;2.37;0.80;;;14.90;73.10;;;;;;5088660;28;20441;-54
2021/03/29 10:12:25;;;;;;;1.47;0.20;;;14.90;71.40;;;;;;5091238;28;20441;-54
2021/03/29 10:14:50;;;;;;;1.60;0.40;;;15.00;71.40;;;;;;5081373;28;20483;-55
2021/03/29 10:17:19;;;;;;;1.50;0.20;;;15.10;71.50;;;;;;5097856;28;20479;-55
2021/03/29 10:19:46;;;;;;;1.60;0.43;;;15.20;70.90;;;;;;5084039;28;20712;-54
2021/03/29 10:22:17;;;;;;;2.80;1.00;;;15.30;70.90;;;;;;5091570;28;20971;-55
2021/03/29 10:25:05;;;;;;;2.63;0.60;;;15.30;70.90;;;;;;5079338;28;20869;-54
2021/03/29 10:27:44;;;;;;;2.60;0.30;;;15.40;70.30;;;;;;5091076;28;20458;-55
2021/03/29 10:30:11;;;;;;;1.43;0.20;;;15.50;70.10;;;;;;5086120;28;20452;-54
2021/03/29 10:32:37;;;;;;;2.03;0.90;;;15.50;70.10;;;;;;5097123;28;20441;-55
2021/03/29 10:35:03;;;;;;;1.50;0.30;;;15.60;68.70;;;;;;5091586;28;20975;-55
2021/03/29 10:37:31;;;;;;;1.50;0.20;;;15.60;68.40;;;;;;5091643;28;20208;-58
2021/03/29 10:39:58;;;;;;;1.43;0.20;;;15.70;69.10;;;;;;5092771;28;20513;-55
2021/03/29 10:42:31;;;;;;;3.90;2.00;;;15.80;68.70;;;;;;5086155;28;20461;-56
2021/03/29 10:44:57;;;;;;;1.40;0.20;;;15.90;68.50;;;;;;5093455;28;20950;-56
2021/03/29 10:47:23;;;;;;;1.50;0.40;;;15.90;67.70;;;;;;5103647;28;20464;-55
2021/03/29 10:49:49;;;;;;;1.63;0.60;;;15.90;66.30;;;;;;5090245;28;20476;-55
2021/03/29 10:52:16;;;;;;;6.23;1.40;;;16.00;65.80;;;;;;5094717;28;20538;-55
2021/03/29 10:54:41;;;;;;;1.43;0.20;;;16.00;65.20;;;;;;5097368;28;20442;-55
2021/03/29 10:57:07;;;;;;;1.60;0.40;;;16.00;65.30;;;;;;5088533;28;20532;-56
2021/03/29 10:59:33;;;;;;;1.40;0.20;;;16.10;63.60;;;;;;5094321;28;20722;-56
2021/03/29 11:01:59;;;;;;;3.60;1.07;;;16.10;63.50;;;;;;5099891;28;20187;-56
2021/03/29 11:04:26;;;;;;;2.63;0.87;;;16.20;64.00;;;;;;5085969;28;20865;-56
2021/03/29 11:06:51;;;;;;;1.40;0.20;;;16.30;63.60;;;;;;5094568;28;20455;-57
2021/03/29 11:09:17;;;;;;;1.60;0.47;;;16.30;63.30;;;;;;5092597;28;20454;-56
2021/03/29 11:11:42;;;;;;;2.83;0.77;;;16.30;61.80;;;;;;5087710;28;20187;-56
2021/03/29 11:14:08;;;;;;;1.93;0.47;;;16.50;61.80;;;;;;5098311;28;20182;-56
2021/03/29 11:16:34;;;;;;;2.37;1.13;;;16.50;61.40;;;;;;5090634;28;20197;-55
2021/03/29 11:19:00;;;;;;;1.40;0.20;;;16.50;60.80;;;;;;5093390;28;20214;-55
2021/03/29 11:21:26;;;;;;;1.40;0.20;;;16.60;60.90;;;;;;5070331;28;20774;-57
2021/03/29 11:23:52;;;;;;;1.93;0.40;;;16.70;59.80;;;;;;5085513;28;20182;-55
2021/03/29 11:26:17;;;;;;;1.40;0.20;;;16.70;59.60;;;;;;5086461;28;20690;-57
2021/03/29 11:28:43;;;;;;;1.40;0.20;;;16.70;59.90;;;;;;5095370;28;20786;-56
2021/03/29 11:31:08;;;;;;;2.47;1.43;;;16.70;59.90;;;;;;5081021;28;20556;-54
2021/03/29 11:33:34;;;;;;;4.73;1.50;;;16.80;60.20;;;;;;5074224;28;20179;-56
2021/03/29 11:36:00;;;;;;;3.50;1.20;;;17.00;59.80;;;;;;5093933;28;20197;-55
2021/03/29 11:38:25;;;;;;;1.47;0.20;;;17.00;59.00;;;;;;5070453;28;20218;-57
2021/03/29 11:40:51;;;;;;;2.13;0.30;;;17.00;59.40;;;;;;5098729;28;20209;-56
2021/03/29 11:43:16;;;;;;;1.40;0.20;;;17.10;59.20;;;;;;5093776;28;20208;-54
2021/03/29 11:45:42;;;;;;;1.90;0.50;;;17.10;59.30;;;;;;5085743;28;20301;-55
2021/03/29 11:48:08;;;;;;;2.30;0.90;;;17.30;59.00;;;;;;5097435;28;20228;-58
2021/03/29 11:50:33;;;;;;;1.40;0.20;;;17.30;58.30;;;;;;5090378;28;20195;-56
2021/03/29 11:52:59;;;;;;;1.63;0.40;;;17.30;57.70;;;;;;5084600;28;20180;-54
2021/03/29 11:55:26;;;;;;;6.00;1.37;;;17.30;57.40;;;;;;5092694;28;20709;-55
2021/03/29 11:57:54;;;;;;;2.17;0.73;;;17.30;57.80;;;;;;5088990;28;20210;-55
2021/03/29 12:03:11;;;;;;;1.73;0.43;;;17.50;57.20;;;;;;5085773;28;20439;-56
2021/03/29 12:05:40;;;;;;;1.50;0.20;;;17.60;57.20;;;;;;5095199;28;20829;-56
2021/03/29 12:13:38;;;;;;;1.50;0.20;;;17.60;56.50;;;;;;5086776;28;20563;-56
2021/03/29 12:16:05;;;;;;;3.00;0.80;;;17.60;56.40;;;;;;5084148;28;20432;-56
2021/03/29 12:21:09;;;;;;;1.47;0.20;;;17.60;55.60;;;;;;5092599;28;20437;-55
2021/03/29 12:23:37;;;;;;;2.03;0.40;;;17.70;56.30;;;;;;5085877;28;20431;-56
2021/03/29 12:26:04;;;;;;;1.60;0.40;;;17.90;55.90;;;;;;5094430;28;20446;-55
2021/03/29 12:28:31;;;;;;;1.43;0.20;;;18.00;55.10;;;;;;5091081;28;21040;-55
2021/03/29 12:30:58;;;;;;;1.43;0.20;;;18.00;55.90;;;;;;5088388;28;20558;-56
2021/03/29 12:33:25;;;;;;;1.50;0.20;;;18.00;55.70;;;;;;5091786;28;20508;-56
2021/03/29 12:35:54;;;;;;;1.47;0.20;;;18.10;55.40;;;;;;5087954;28;20443;-56
2021/03/29 12:38:21;;;;;;;1.43;0.20;;;18.20;55.70;;;;;;5086332;28;20451;-58
2021/03/29 12:40:47;;;;;;;1.40;0.20;;;18.30;54.30;;;;;;5101726;28;20462;-56
2021/03/29 12:43:21;;;;;;;1.40;0.20;;;18.40;53.40;;;;;;5085026;28;20901;-56
2021/03/29 12:45:47;;;;;;;1.47;0.30;;;18.40;53.00;;;;;;5080512;28;20194;-56
2021/03/29 12:48:15;;;;;;;1.90;0.50;;;18.50;53.00;;;;;;5089816;28;20470;-57
2021/03/29 12:50:41;;;;;;;1.70;0.37;;;18.60;52.40;;;;;;5082582;28;20433;-57
2021/03/29 12:53:09;;;;;;;2.73;1.70;;;18.60;51.40;;;;;;5087815;28;20442;-56
2021/03/29 12:55:35;;;;;;;1.50;0.30;;;18.70;50.90;;;;;;5091783;28;20442;-57
2021/03/29 12:58:00;;;;;;;4.13;0.90;;;18.70;50.90;;;;;;5086102;28;20537;-57
2021/03/29 13:00:29;;;;;;;2.67;1.03;;;18.80;51.10;;;;;;5093071;28;20202;-56
2021/03/29 13:02:57;;;;;;;1.40;0.20;;;18.90;50.00;;;;;;5087597;28;20224;-57
2021/03/29 13:08:00;;;;;;;1.40;0.20;;;19.00;48.80;;;;;;5090603;28;20461;-57
2021/03/29 13:12:57;;;;;;;1.40;0.20;;;19.00;49.50;;;;;;5087188;28;20444;-56
2021/03/29 13:15:23;;;;;;;1.50;0.47;;;19.20;47.90;;;;;;5096844;28;20434;-58